sensor_id;sensor_type;location;lat;lon;timestamp;pressure;altitude;pressure_sealevel;temperature;humidity
39793;BME280;26080;42.264;24.536;2022-09-09T00:01:30;99534.81;;;14.85;100.00
39793;BME280;26080;42.264;24.536;2022-09-09T00:09:26;99519.75;;;15.01;100.00
39793;BME280;26080;42.264;24.536;2022-09-09T00:12:06;99519.94;;;14.98;100.00
39793;BME280;26080;42.264;24.536;2022-09-09T00:14:51;99527.22;;;14.80;100.00
39793;BME280;26080;42.264;24.536;2022-09-09T00:17:34;99527.84;;;14.70;100.00
39793;BME280;26080;42.264;24.536;2022-09-09T00:20:16;99526.59;;;14.61;100.00
39793;BME280;26080;42.264;24.536;2022-09-09T00:23:00;99534.59;;;14.60;100.00
39793;BME280;26080;42.264;24.536;2022-09-09T00:25:37;99535.56;;;14.59;100.00
39793;BME280;26080;42.264;24.536;2022-09-09T00:28:18;99525.78;;;14.75;100.00
39793;BME280;26080;42.264;24.536;2022-09-09T00:30:44;99530.75;;;14.79;100.00
39793;BME280;26080;42.264;24.536;2022-09-09T00:33:13;99525.78;;;14.89;100.00
39793;BME280;26080;42.264;24.536;2022-09-09T00:35:51;99536.50;;;15.00;100.00
39793;BME280;26080;42.264;24.536;2022-09-09T00:38:35;99521.06;;;15.08;100.00
39793;BME280;26080;42.264;24.536;2022-09-09T00:44:02;99500.53;;;14.99;100.00
39793;BME280;26080;42.264;24.536;2022-09-09T00:54:38;99528.06;;;14.95;100.00
39793;BME280;26080;42.264;24.536;2022-09-09T00:57:25;99525.56;;;14.78;100.00
39793;BME280;26080;42.264;24.536;2022-09-09T01:00:25;99527.84;;;14.70;100.00
39793;BME280;26080;42.264;24.536;2022-09-09T01:17:01;99510.91;;;14.74;100.00
39793;BME280;26080;42.264;24.536;2022-09-09T01:27:40;99492.59;;;14.42;100.00
39793;BME280;26080;42.264;24.536;2022-09-09T01:30:11;99518.59;;;14.48;100.00
39793;BME280;26080;42.264;24.536;2022-09-09T01:32:50;99491.03;;;14.24;100.00
39793;BME280;26080;42.264;24.536;2022-09-09T01:37:55;99505.75;;;14.42;100.00
39793;BME280;26080;42.264;24.536;2022-09-09T01:40:21;99515.53;;;14.40;100.00
39793;BME280;26080;42.264;24.536;2022-09-09T01:42:47;99513.78;;;14.25;100.00
39793;BME280;26080;42.264;24.536;2022-09-09T01:45:12;99499.59;;;14.13;100.00
39793;BME280;26080;42.264;24.536;2022-09-09T01:47:38;99510.59;;;14.20;100.00
39793;BME280;26080;42.264;24.536;2022-09-09T01:50:04;99495.41;;;14.09;100.00
39793;BME280;26080;42.264;24.536;2022-09-09T01:52:31;99499.16;;;14.05;100.00
39793;BME280;26080;42.264;24.536;2022-09-09T01:54:59;99514.91;;;14.21;100.00
39793;BME280;26080;42.264;24.536;2022-09-09T01:57:28;99516.38;;;14.27;100.00
39793;BME280;26080;42.264;24.536;2022-09-09T02:00:07;99505.97;;;14.23;100.00
39793;BME280;26080;42.264;24.536;2022-09-09T02:05:38;99508.44;;;14.57;100.00
39793;BME280;26080;42.264;24.536;2022-09-09T02:08:11;99508.66;;;14.68;100.00
39793;BME280;26080;42.264;24.536;2022-09-09T02:13:19;99504.38;;;14.79;100.00
39793;BME280;26080;42.264;24.536;2022-09-09T02:18:20;99521.44;;;14.74;100.00
39793;BME280;26080;42.264;24.536;2022-09-09T02:20:48;99521.03;;;14.51;100.00
39793;BME280;26080;42.264;24.536;2022-09-09T02:23:16;99520.19;;;14.65;100.00
39793;BME280;26080;42.264;24.536;2022-09-09T02:25:42;99519.94;;;14.70;100.00
39793;BME280;26080;42.264;24.536;2022-09-09T02:28:10;99520.47;;;14.61;100.00
39793;BME280;26080;42.264;24.536;2022-09-09T02:30:38;99517.84;;;14.46;100.00
39793;BME280;26080;42.264;24.536;2022-09-09T02:33:07;99508.19;;;14.31;100.00
39793;BME280;26080;42.264;24.536;2022-09-09T02:35:35;99526.16;;;14.39;100.00
39793;BME280;26080;42.264;24.536;2022-09-09T02:38:05;99497.09;;;14.10;100.00
39793;BME280;26080;42.264;24.536;2022-09-09T02:40:33;99525.53;;;14.19;100.00
39793;BME280;26080;42.264;24.536;2022-09-09T02:42:58;99533.34;;;14.21;100.00
39793;BME280;26080;42.264;24.536;2022-09-09T02:45:27;99518.22;;;14.24;100.00
39793;BME280;26080;42.264;24.536;2022-09-09T02:48:20;99532.69;;;14.17;100.00
39793;BME280;26080;42.264;24.536;2022-09-09T02:53:56;99520.97;;;14.37;100.00
39793;BME280;26080;42.264;24.536;2022-09-09T02:56:27;99512.72;;;14.43;100.00
39793;BME280;26080;42.264;24.536;2022-09-09T02:58:55;99510.03;;;14.45;100.00
39793;BME280;26080;42.264;24.536;2022-09-09T03:01:21;99508.22;;;14.45;100.00
39793;BME280;26080;42.264;24.536;2022-09-09T03:03:46;99518.00;;;14.43;100.00
39793;BME280;26080;42.264;24.536;2022-09-09T03:06:12;99523.25;;;14.43;100.00
39793;BME280;26080;42.264;24.536;2022-09-09T03:08:38;99520.03;;;14.38;100.00
39793;BME280;26080;42.264;24.536;2022-09-09T03:11:03;99531.88;;;14.31;100.00
39793;BME280;26080;42.264;24.536;2022-09-09T03:13:29;99524.88;;;14.16;100.00
39793;BME280;26080;42.264;24.536;2022-09-09T03:15:55;99534.09;;;14.23;100.00
39793;BME280;26080;42.264;24.536;2022-09-09T03:18:20;99496.22;;;13.96;100.00
39793;BME280;26080;42.264;24.536;2022-09-09T03:20:46;99539.19;;;14.12;100.00
39793;BME280;26080;42.264;24.536;2022-09-09T03:23:14;99535.84;;;14.08;100.00
39793;BME280;26080;42.264;24.536;2022-09-09T03:25:39;99549.19;;;14.05;100.00
39793;BME280;26080;42.264;24.536;2022-09-09T03:28:11;99539.88;;;14.00;100.00
39793;BME280;26080;42.264;24.536;2022-09-09T03:30:36;99540.22;;;13.93;100.00
39793;BME280;26080;42.264;24.536;2022-09-09T03:33:03;99538.19;;;13.99;100.00
39793;BME280;26080;42.264;24.536;2022-09-09T03:35:29;99534.91;;;14.09;100.00
39793;BME280;26080;42.264;24.536;2022-09-09T03:37:54;99521.53;;;13.98;100.00
39793;BME280;26080;42.264;24.536;2022-09-09T03:40:20;99529.16;;;14.03;100.00
39793;BME280;26080;42.264;24.536;2022-09-09T03:42:45;99544.03;;;14.04;100.00
39793;BME280;26080;42.264;24.536;2022-09-09T03:45:11;99508.91;;;13.89;100.00
39793;BME280;26080;42.264;24.536;2022-09-09T03:47:37;99525.09;;;13.97;100.00
39793;BME280;26080;42.264;24.536;2022-09-09T03:50:04;99536.94;;;14.20;100.00
39793;BME280;26080;42.264;24.536;2022-09-09T03:52:35;99529.34;;;14.00;100.00
39793;BME280;26080;42.264;24.536;2022-09-09T03:55:00;99532.06;;;13.82;100.00
39793;BME280;26080;42.264;24.536;2022-09-09T03:57:27;99532.25;;;13.79;100.00
39793;BME280;26080;42.264;24.536;2022-09-09T03:59:52;99541.03;;;14.10;100.00
39793;BME280;26080;42.264;24.536;2022-09-09T04:02:18;99532.03;;;14.14;100.00
39793;BME280;26080;42.264;24.536;2022-09-09T04:04:43;99524.41;;;14.23;100.00
39793;BME280;26080;42.264;24.536;2022-09-09T04:07:08;99531.97;;;14.30;100.00
39793;BME280;26080;42.264;24.536;2022-09-09T04:09:34;99529.06;;;14.34;100.00
39793;BME280;26080;42.264;24.536;2022-09-09T04:12:00;99491.81;;;14.26;100.00
39793;BME280;26080;42.264;24.536;2022-09-09T04:14:25;99517.28;;;14.56;100.00
39793;BME280;26080;42.264;24.536;2022-09-09T04:16:54;99514.19;;;14.63;100.00
39793;BME280;26080;42.264;24.536;2022-09-09T04:19:19;99525.56;;;14.64;100.00
39793;BME280;26080;42.264;24.536;2022-09-09T04:21:45;99525.41;;;14.67;100.00
39793;BME280;26080;42.264;24.536;2022-09-09T04:24:10;99539.34;;;14.83;100.00
39793;BME280;26080;42.264;24.536;2022-09-09T04:26:36;99504.88;;;14.58;100.00
39793;BME280;26080;42.264;24.536;2022-09-09T04:29:03;99528.09;;;14.65;100.00
39793;BME280;26080;42.264;24.536;2022-09-09T04:31:29;99544.22;;;14.75;100.00
39793;BME280;26080;42.264;24.536;2022-09-09T04:33:55;99553.56;;;14.80;100.00
39793;BME280;26080;42.264;24.536;2022-09-09T04:36:21;99560.25;;;14.86;100.00
39793;BME280;26080;42.264;24.536;2022-09-09T04:38:46;99552.03;;;14.91;100.00
39793;BME280;26080;42.264;24.536;2022-09-09T04:41:13;99559.13;;;15.04;100.00
39793;BME280;26080;42.264;24.536;2022-09-09T04:43:39;99555.72;;;15.17;100.00
39793;BME280;26080;42.264;24.536;2022-09-09T04:46:05;99563.44;;;15.34;100.00
39793;BME280;26080;42.264;24.536;2022-09-09T04:48:31;99570.59;;;15.32;100.00
39793;BME280;26080;42.264;24.536;2022-09-09T04:51:14;99544.31;;;15.16;100.00
39793;BME280;26080;42.264;24.536;2022-09-09T04:53:40;99572.84;;;15.52;100.00
39793;BME280;26080;42.264;24.536;2022-09-09T04:56:12;99566.31;;;15.72;100.00
39793;BME280;26080;42.264;24.536;2022-09-09T04:58:39;99571.31;;;15.77;100.00
39793;BME280;26080;42.264;24.536;2022-09-09T05:01:18;99561.44;;;15.93;100.00
39793;BME280;26080;42.264;24.536;2022-09-09T05:03:45;99572.50;;;16.12;100.00
39793;BME280;26080;42.264;24.536;2022-09-09T05:06:13;99559.84;;;16.17;100.00
39793;BME280;26080;42.264;24.536;2022-09-09T05:08:40;99553.94;;;16.26;100.00
39793;BME280;26080;42.264;24.536;2022-09-09T05:11:26;99556.84;;;16.49;100.00
39793;BME280;26080;42.264;24.536;2022-09-09T05:13:53;99560.91;;;16.67;100.00
39793;BME280;26080;42.264;24.536;2022-09-09T05:16:20;99551.69;;;16.60;100.00
39793;BME280;26080;42.264;24.536;2022-09-09T05:18:45;99562.72;;;16.79;100.00
39793;BME280;26080;42.264;24.536;2022-09-09T05:21:12;99554.03;;;17.03;100.00
39793;BME280;26080;42.264;24.536;2022-09-09T05:23:38;99542.41;;;17.05;100.00
39793;BME280;26080;42.264;24.536;2022-09-09T05:26:05;99568.16;;;17.40;100.00
39793;BME280;26080;42.264;24.536;2022-09-09T05:28:31;99547.81;;;17.40;100.00
39793;BME280;26080;42.264;24.536;2022-09-09T05:31:01;99577.84;;;17.65;100.00
39793;BME280;26080;42.264;24.536;2022-09-09T05:33:30;99570.00;;;17.63;100.00
39793;BME280;26080;42.264;24.536;2022-09-09T05:36:01;99574.00;;;17.82;100.00
39793;BME280;26080;42.264;24.536;2022-09-09T05:38:28;99563.09;;;17.86;100.00
39793;BME280;26080;42.264;24.536;2022-09-09T05:40:55;99567.50;;;17.98;100.00
39793;BME280;26080;42.264;24.536;2022-09-09T05:43:22;99563.59;;;17.91;100.00
39793;BME280;26080;42.264;24.536;2022-09-09T05:45:48;99561.22;;;17.99;100.00
39793;BME280;26080;42.264;24.536;2022-09-09T05:48:16;99559.91;;;18.05;100.00
39793;BME280;26080;42.264;24.536;2022-09-09T05:50:42;99556.38;;;18.17;100.00
39793;BME280;26080;42.264;24.536;2022-09-09T05:53:08;99559.91;;;18.29;100.00
39793;BME280;26080;42.264;24.536;2022-09-09T05:55:35;99552.31;;;18.35;100.00
39793;BME280;26080;42.264;24.536;2022-09-09T05:58:01;99538.97;;;18.37;100.00
39793;BME280;26080;42.264;24.536;2022-09-09T06:00:26;99542.97;;;18.43;100.00
39793;BME280;26080;42.264;24.536;2022-09-09T06:02:52;99539.25;;;18.56;100.00
39793;BME280;26080;42.264;24.536;2022-09-09T06:05:19;99543.06;;;18.65;100.00
39793;BME280;26080;42.264;24.536;2022-09-09T06:07:44;99538.59;;;18.66;100.00
39793;BME280;26080;42.264;24.536;2022-09-09T06:10:11;99531.31;;;18.56;100.00
39793;BME280;26080;42.264;24.536;2022-09-09T06:12:39;99553.66;;;18.65;100.00
39793;BME280;26080;42.264;24.536;2022-09-09T06:15:04;99565.88;;;18.79;100.00
39793;BME280;26080;42.264;24.536;2022-09-09T06:17:30;99556.09;;;18.79;100.00
39793;BME280;26080;42.264;24.536;2022-09-09T06:19:55;99559.59;;;18.91;100.00
39793;BME280;26080;42.264;24.536;2022-09-09T06:22:21;99554.06;;;18.94;100.00
39793;BME280;26080;42.264;24.536;2022-09-09T06:24:47;99569.16;;;18.93;100.00
39793;BME280;26080;42.264;24.536;2022-09-09T06:27:12;99563.00;;;18.93;100.00
39793;BME280;26080;42.264;24.536;2022-09-09T06:29:38;99572.28;;;18.99;100.00
39793;BME280;26080;42.264;24.536;2022-09-09T06:32:04;99566.38;;;18.95;100.00
39793;BME280;26080;42.264;24.536;2022-09-09T06:34:30;99569.03;;;19.06;100.00
39793;BME280;26080;42.264;24.536;2022-09-09T06:36:55;99572.19;;;19.11;100.00
39793;BME280;26080;42.264;24.536;2022-09-09T06:39:23;99569.03;;;19.17;100.00
39793;BME280;26080;42.264;24.536;2022-09-09T06:41:48;99564.81;;;19.26;100.00
39793;BME280;26080;42.264;24.536;2022-09-09T06:44:14;99558.91;;;19.34;100.00
39793;BME280;26080;42.264;24.536;2022-09-09T06:46:40;99555.63;;;19.30;100.00
39793;BME280;26080;42.264;24.536;2022-09-09T06:49:07;99547.53;;;19.32;100.00
39793;BME280;26080;42.264;24.536;2022-09-09T06:51:35;99550.56;;;19.27;100.00
39793;BME280;26080;42.264;24.536;2022-09-09T06:54:02;99552.00;;;19.31;100.00
39793;BME280;26080;42.264;24.536;2022-09-09T06:56:33;99560.56;;;19.46;100.00
39793;BME280;26080;42.264;24.536;2022-09-09T06:59:02;99528.22;;;19.41;100.00
39793;BME280;26080;42.264;24.536;2022-09-09T07:01:33;99555.06;;;19.60;100.00
39793;BME280;26080;42.264;24.536;2022-09-09T07:04:00;99563.59;;;19.75;100.00
39793;BME280;26080;42.264;24.536;2022-09-09T07:06:37;99560.09;;;19.74;100.00
39793;BME280;26080;42.264;24.536;2022-09-09T07:09:05;99563.47;;;19.76;100.00
39793;BME280;26080;42.264;24.536;2022-09-09T07:11:33;99571.41;;;19.88;100.00
39793;BME280;26080;42.264;24.536;2022-09-09T07:14:00;99574.16;;;19.86;99.41
39793;BME280;26080;42.264;24.536;2022-09-09T07:16:26;99577.66;;;19.98;99.35
39793;BME280;26080;42.264;24.536;2022-09-09T07:18:56;99570.75;;;20.06;97.57
39793;BME280;26080;42.264;24.536;2022-09-09T07:21:26;99574.69;;;20.12;97.91
39793;BME280;26080;42.264;24.536;2022-09-09T07:23:53;99567.25;;;20.06;98.31
39793;BME280;26080;42.264;24.536;2022-09-09T07:26:21;99553.84;;;20.28;97.95
39793;BME280;26080;42.264;24.536;2022-09-09T07:28:47;99562.16;;;20.46;96.61
39793;BME280;26080;42.264;24.536;2022-09-09T07:31:30;99556.97;;;20.45;96.75
39793;BME280;26080;42.264;24.536;2022-09-09T07:33:56;99557.84;;;20.55;94.59
39793;BME280;26080;42.264;24.536;2022-09-09T07:36:27;99522.63;;;20.41;95.04
39793;BME280;26080;42.264;24.536;2022-09-09T07:38:57;99558.44;;;20.79;93.44
39793;BME280;26080;42.264;24.536;2022-09-09T07:41:24;99548.75;;;20.78;92.85
39793;BME280;26080;42.264;24.536;2022-09-09T07:43:50;99539.16;;;20.87;93.02
39793;BME280;26080;42.264;24.536;2022-09-09T07:46:19;99546.22;;;20.97;91.04
39793;BME280;26080;42.264;24.536;2022-09-09T07:48:46;99539.81;;;21.10;92.12
39793;BME280;26080;42.264;24.536;2022-09-09T07:51:15;99538.81;;;21.32;92.55
39793;BME280;26080;42.264;24.536;2022-09-09T07:53:45;99534.38;;;21.51;89.16
39793;BME280;26080;42.264;24.536;2022-09-09T07:56:16;99536.22;;;21.61;87.51
39793;BME280;26080;42.264;24.536;2022-09-09T07:58:45;99536.66;;;21.56;86.96
39793;BME280;26080;42.264;24.536;2022-09-09T08:01:32;99533.88;;;21.67;86.72
39793;BME280;26080;42.264;24.536;2022-09-09T08:04:03;99538.94;;;21.70;86.85
39793;BME280;26080;42.264;24.536;2022-09-09T08:06:34;99543.72;;;21.86;86.79
39793;BME280;26080;42.264;24.536;2022-09-09T08:09:00;99538.97;;;21.99;86.46
39793;BME280;26080;42.264;24.536;2022-09-09T08:11:28;99544.31;;;22.18;85.68
39793;BME280;26080;42.264;24.536;2022-09-09T08:13:54;99540.81;;;22.37;86.42
39793;BME280;26080;42.264;24.536;2022-09-09T08:16:24;99533.63;;;22.57;84.22
39793;BME280;26080;42.264;24.536;2022-09-09T08:18:51;99538.41;;;22.63;82.87
39793;BME280;26080;42.264;24.536;2022-09-09T08:21:20;99531.78;;;22.67;83.52
39793;BME280;26080;42.264;24.536;2022-09-09T08:23:46;99524.03;;;22.74;82.56
39793;BME280;26080;42.264;24.536;2022-09-09T08:26:33;99518.69;;;22.74;81.58
39793;BME280;26080;42.264;24.536;2022-09-09T08:29:00;99493.25;;;22.80;82.38
39793;BME280;26080;42.264;24.536;2022-09-09T08:31:29;99510.22;;;22.98;81.51
39793;BME280;26080;42.264;24.536;2022-09-09T08:33:56;99513.03;;;22.96;80.80
39793;BME280;26080;42.264;24.536;2022-09-09T08:36:24;99506.72;;;22.97;81.05
39793;BME280;26080;42.264;24.536;2022-09-09T08:38:53;99480.03;;;22.88;81.95
39793;BME280;26080;42.264;24.536;2022-09-09T08:55:25;99489.84;;;23.52;79.97
39793;BME280;26080;42.264;24.536;2022-09-09T08:57:55;99494.34;;;23.51;76.93
39793;BME280;26080;42.264;24.536;2022-09-09T09:00:21;99491.44;;;23.45;79.26
39793;BME280;26080;42.264;24.536;2022-09-09T09:03:09;99487.69;;;23.55;78.28
39793;BME280;26080;42.264;24.536;2022-09-09T09:05:48;99471.25;;;23.60;78.17
39793;BME280;26080;42.264;24.536;2022-09-09T09:10:54;99460.56;;;23.60;76.26
39793;BME280;26080;42.264;24.536;2022-09-09T09:13:34;99473.84;;;23.70;73.96
39793;BME280;26080;42.264;24.536;2022-09-09T09:16:23;99467.91;;;23.58;75.87
39793;BME280;26080;42.264;24.536;2022-09-09T09:18:49;99466.28;;;23.65;76.41
39793;BME280;26080;42.264;24.536;2022-09-09T09:21:25;99470.41;;;23.77;76.89
39793;BME280;26080;42.264;24.536;2022-09-09T09:23:57;99461.78;;;23.83;80.88
39793;BME280;26080;42.264;24.536;2022-09-09T09:26:30;99457.28;;;24.02;77.14
39793;BME280;26080;42.264;24.536;2022-09-09T09:28:58;99451.06;;;24.19;73.95
39793;BME280;26080;42.264;24.536;2022-09-09T09:31:24;99458.09;;;24.20;72.54
39793;BME280;26080;42.264;24.536;2022-09-09T09:33:56;99449.28;;;24.28;73.51
39793;BME280;26080;42.264;24.536;2022-09-09T09:36:42;99454.34;;;24.31;74.67
39793;BME280;26080;42.264;24.536;2022-09-09T09:39:10;99444.50;;;24.31;76.58
39793;BME280;26080;42.264;24.536;2022-09-09T09:41:40;99453.13;;;24.51;78.42
39793;BME280;26080;42.264;24.536;2022-09-09T09:44:29;99435.28;;;24.60;76.46
39793;BME280;26080;42.264;24.536;2022-09-09T09:47:14;99435.75;;;24.81;76.61
39793;BME280;26080;42.264;24.536;2022-09-09T09:49:54;99426.50;;;25.01;75.45
39793;BME280;26080;42.264;24.536;2022-09-09T09:52:24;99423.34;;;25.14;76.61
39793;BME280;26080;42.264;24.536;2022-09-09T09:54:52;99421.72;;;25.29;75.68
39793;BME280;26080;42.264;24.536;2022-09-09T09:57:23;99417.19;;;25.30;71.36
39793;BME280;26080;42.264;24.536;2022-09-09T10:00:00;99396.06;;;25.10;72.11
39793;BME280;26080;42.264;24.536;2022-09-09T10:02:40;99393.50;;;25.01;70.36
39793;BME280;26080;42.264;24.536;2022-09-09T10:05:21;99399.63;;;24.93;71.53
39793;BME280;26080;42.264;24.536;2022-09-09T10:08:00;99393.44;;;24.93;73.87
39793;BME280;26080;42.264;24.536;2022-09-09T10:22:13;99421.09;;;25.60;71.31
39793;BME280;26080;42.264;24.536;2022-09-09T10:40:40;99384.44;;;25.85;67.29
39793;BME280;26080;42.264;24.536;2022-09-09T10:46:10;99386.81;;;25.80;67.52
39793;BME280;26080;42.264;24.536;2022-09-09T10:51:36;99398.38;;;25.80;69.45
39793;BME280;26080;42.264;24.536;2022-09-09T10:56:31;99382.44;;;25.95;70.58
39793;BME280;26080;42.264;24.536;2022-09-09T10:59:02;99383.78;;;26.07;67.53
39793;BME280;26080;42.264;24.536;2022-09-09T11:01:41;99376.50;;;26.48;64.42
39793;BME280;26080;42.264;24.536;2022-09-09T11:04:22;99367.00;;;26.69;63.49
39793;BME280;26080;42.264;24.536;2022-09-09T11:06:53;99363.94;;;26.88;62.40
39793;BME280;26080;42.264;24.536;2022-09-09T11:09:26;99348.63;;;26.89;63.67
39793;BME280;26080;42.264;24.536;2022-09-09T11:11:58;99359.69;;;27.02;66.30
39793;BME280;26080;42.264;24.536;2022-09-09T11:14:58;99365.47;;;27.13;63.38
39793;BME280;26080;42.264;24.536;2022-09-09T11:17:33;99348.50;;;27.13;63.03
39793;BME280;26080;42.264;24.536;2022-09-09T11:20:01;99355.59;;;27.14;64.67
39793;BME280;26080;42.264;24.536;2022-09-09T11:23:04;99355.22;;;27.17;64.81
39793;BME280;26080;42.264;24.536;2022-09-09T11:25:25;99346.81;;;27.20;65.13
39793;BME280;26080;42.264;24.536;2022-09-09T11:30:21;99340.66;;;27.34;61.35
39793;BME280;26080;42.264;24.536;2022-09-09T11:33:07;99344.31;;;27.41;61.30
39793;BME280;26080;42.264;24.536;2022-09-09T11:41:09;99333.72;;;27.63;62.73
39793;BME280;26080;42.264;24.536;2022-09-09T11:43:45;99325.53;;;27.94;62.06
39793;BME280;26080;42.264;24.536;2022-09-09T11:46:13;99332.34;;;28.04;61.20
39793;BME280;26080;42.264;24.536;2022-09-09T11:48:45;99310.22;;;27.94;60.83
39793;BME280;26080;42.264;24.536;2022-09-09T11:59:04;99272.28;;;28.19;60.29
39793;BME280;26080;42.264;24.536;2022-09-09T12:06:46;99300.19;;;28.77;55.27
39793;BME280;26080;42.264;24.536;2022-09-09T12:14:42;99302.13;;;28.32;57.02
39793;BME280;26080;42.264;24.536;2022-09-09T12:17:19;99301.56;;;28.51;55.64
39793;BME280;26080;42.264;24.536;2022-09-09T12:19:46;99287.78;;;28.61;54.08
39793;BME280;26080;42.264;24.536;2022-09-09T13:47:30;99210.63;;;28.09;57.82
39793;BME280;26080;42.264;24.536;2022-09-09T13:49:56;99204.34;;;28.17;59.36
39793;BME280;26080;42.264;24.536;2022-09-09T13:52:22;99208.91;;;28.01;59.28
39793;BME280;26080;42.264;24.536;2022-09-09T13:54:49;99210.56;;;27.88;61.75
39793;BME280;26080;42.264;24.536;2022-09-09T13:57:20;99206.00;;;28.03;62.11
39793;BME280;26080;42.264;24.536;2022-09-09T13:59:46;99207.78;;;28.11;60.27
39793;BME280;26080;42.264;24.536;2022-09-09T14:02:13;99198.22;;;27.93;60.56
39793;BME280;26080;42.264;24.536;2022-09-09T14:04:38;99209.44;;;27.82;62.85
39793;BME280;26080;42.264;24.536;2022-09-09T14:07:10;99202.91;;;27.62;62.25
39793;BME280;26080;42.264;24.536;2022-09-09T14:09:36;99204.75;;;27.47;63.61
39793;BME280;26080;42.264;24.536;2022-09-09T14:12:02;99206.56;;;27.31;64.48
39793;BME280;26080;42.264;24.536;2022-09-09T14:14:27;99194.78;;;27.18;66.03
39793;BME280;26080;42.264;24.536;2022-09-09T14:16:53;99197.16;;;27.12;64.91
39793;BME280;26080;42.264;24.536;2022-09-09T14:19:18;99191.31;;;27.09;65.57
39793;BME280;26080;42.264;24.536;2022-09-09T14:21:44;99198.72;;;27.07;66.86
39793;BME280;26080;42.264;24.536;2022-09-09T14:24:09;99204.56;;;27.10;67.88
39793;BME280;26080;42.264;24.536;2022-09-09T14:26:34;99201.69;;;27.12;67.45
39793;BME280;26080;42.264;24.536;2022-09-09T14:29:00;99204.31;;;27.20;68.02
39793;BME280;26080;42.264;24.536;2022-09-09T14:31:26;99206.34;;;27.18;67.67
39793;BME280;26080;42.264;24.536;2022-09-09T14:33:52;99208.03;;;27.19;68.00
39793;BME280;26080;42.264;24.536;2022-09-09T14:36:18;99199.75;;;26.98;68.32
39793;BME280;26080;42.264;24.536;2022-09-09T14:38:43;99184.56;;;26.90;68.64
39793;BME280;26080;42.264;24.536;2022-09-09T14:41:10;99188.34;;;26.96;67.64
39793;BME280;26080;42.264;24.536;2022-09-09T14:43:40;99186.03;;;26.93;68.89
39793;BME280;26080;42.264;24.536;2022-09-09T14:46:11;99189.13;;;26.81;68.38
39793;BME280;26080;42.264;24.536;2022-09-09T14:48:37;99168.97;;;26.63;69.34
39793;BME280;26080;42.264;24.536;2022-09-09T14:53:35;99185.19;;;26.69;69.61
39793;BME280;26080;42.264;24.536;2022-09-09T14:58:37;99178.50;;;26.65;72.93
39793;BME280;26080;42.264;24.536;2022-09-09T15:01:14;99188.00;;;26.53;75.93
39793;BME280;26080;42.264;24.536;2022-09-09T15:03:41;99189.94;;;26.36;78.23
39793;BME280;26080;42.264;24.536;2022-09-09T15:06:13;99187.59;;;26.25;79.13
39793;BME280;26080;42.264;24.536;2022-09-09T15:08:41;99180.69;;;26.39;78.34
39793;BME280;26080;42.264;24.536;2022-09-09T15:11:07;99183.72;;;26.36;80.14
39793;BME280;26080;42.264;24.536;2022-09-09T15:13:33;99183.38;;;26.39;80.46
39793;BME280;26080;42.264;24.536;2022-09-09T15:16:19;99173.66;;;26.38;80.72
39793;BME280;26080;42.264;24.536;2022-09-09T15:18:45;99171.63;;;26.40;80.43
39793;BME280;26080;42.264;24.536;2022-09-09T15:21:17;99165.31;;;26.24;80.84
39793;BME280;26080;42.264;24.536;2022-09-09T15:23:44;99166.84;;;26.19;79.61
39793;BME280;26080;42.264;24.536;2022-09-09T15:26:10;99170.41;;;26.11;80.34
39793;BME280;26080;42.264;24.536;2022-09-09T15:28:37;99166.34;;;26.15;81.28
39793;BME280;26080;42.264;24.536;2022-09-09T15:31:30;99169.47;;;26.27;79.15
39793;BME280;26080;42.264;24.536;2022-09-09T15:33:58;99165.13;;;26.26;81.04
39793;BME280;26080;42.264;24.536;2022-09-09T15:36:32;99175.22;;;26.16;83.48
39793;BME280;26080;42.264;24.536;2022-09-09T15:39:02;99174.94;;;26.03;82.20
39793;BME280;26080;42.264;24.536;2022-09-09T15:41:28;99173.09;;;26.03;82.29
39793;BME280;26080;42.264;24.536;2022-09-09T15:43:56;99176.13;;;26.08;82.22
39793;BME280;26080;42.264;24.536;2022-09-09T15:46:29;99170.41;;;26.03;82.48
39793;BME280;26080;42.264;24.536;2022-09-09T15:48:58;99167.06;;;26.09;84.38
39793;BME280;26080;42.264;24.536;2022-09-09T15:51:27;99169.94;;;25.99;84.02
39793;BME280;26080;42.264;24.536;2022-09-09T15:53:54;99155.41;;;25.86;83.73
39793;BME280;26080;42.264;24.536;2022-09-09T15:56:21;99165.94;;;25.95;84.07
39793;BME280;26080;42.264;24.536;2022-09-09T15:58:46;99169.19;;;25.83;84.55
39793;BME280;26080;42.264;24.536;2022-09-09T16:01:12;99149.44;;;25.59;85.26
39793;BME280;26080;42.264;24.536;2022-09-09T16:03:39;99173.41;;;25.53;84.86
39793;BME280;26080;42.264;24.536;2022-09-09T16:06:07;99150.16;;;25.37;86.09
39793;BME280;26080;42.264;24.536;2022-09-09T16:08:34;99172.94;;;25.41;85.23
39793;BME280;26080;42.264;24.536;2022-09-09T16:11:14;99171.44;;;25.38;84.30
39793;BME280;26080;42.264;24.536;2022-09-09T16:13:42;99171.94;;;25.34;85.61
39793;BME280;26080;42.264;24.536;2022-09-09T16:16:10;99163.91;;;25.26;86.87
39793;BME280;26080;42.264;24.536;2022-09-09T16:18:37;99169.09;;;25.19;86.60
39793;BME280;26080;42.264;24.536;2022-09-09T16:21:04;99160.25;;;25.10;86.52
39793;BME280;26080;42.264;24.536;2022-09-09T16:23:40;99167.63;;;25.08;87.28
39793;BME280;26080;42.264;24.536;2022-09-09T16:26:05;99139.47;;;25.04;87.11
39793;BME280;26080;42.264;24.536;2022-09-09T16:28:31;99160.56;;;25.07;87.03
39793;BME280;26080;42.264;24.536;2022-09-09T16:30:57;99151.03;;;24.97;87.45
39793;BME280;26080;42.264;24.536;2022-09-09T16:33:23;99159.72;;;24.99;87.16
39793;BME280;26080;42.264;24.536;2022-09-09T16:35:50;99151.19;;;24.87;87.66
39793;BME280;26080;42.264;24.536;2022-09-09T16:38:16;99144.97;;;24.78;88.43
39793;BME280;26080;42.264;24.536;2022-09-09T16:40:42;99152.66;;;24.65;88.52